Time,TemperatureF,DewpointF,PressureIn,WindDirection,WindDirectionDegrees,WindSpeedMPH,WindSpeedGustMPH,Humidity,HourlyPrecipIn,Conditions,Clouds,dailyrainin,SoftwareType,DateUTC
2013-01-22 00:27:00,64.4,64.1,29.88,West,270,5.3,-999.0,99,-99.99,,,0.00,Acu-Link.com,2013-01-22 05:27:00,
2013-01-22 00:42:00,64.2,63.9,29.87,West,270,1.7,-999.0,99,-99.99,,,0.00,Acu-Link.com,2013-01-22 05:42:00,
2013-01-22 00:57:00,64.0,63.7,29.87,WSW,247,3.2,-999.0,99,-99.99,,,0.00,Acu-Link.com,2013-01-22 05:57:00,
2013-01-22 01:12:00,63.9,63.6,29.87,SW,225,3.7,-999.0,99,-99.99,,,0.00,Acu-Link.com,2013-01-22 06:12:00,
2013-01-22 01:28:00,63.7,63.4,29.87,West,270,2.7,-999.0,99,-99.99,,,0.00,Acu-Link.com,2013-01-22 06:28:00,
2013-01-22 01:43:00,63.5,63.2,29.86,West,270,2.7,-999.0,99,-99.99,,,0.00,Acu-Link.com,2013-01-22 06:43:00,
2013-01-22 01:58:00,63.5,63.2,29.86,WNW,292,2.7,-999.0,99,-99.99,,,0.00,Acu-Link.com,2013-01-22 06:58:00,
2013-01-22 02:13:00,63.3,63.0,29.86,WNW,292,5.3,-999.0,99,-99.99,,,0.00,Acu-Link.com,2013-01-22 07:13:00,
2013-01-22 02:28:00,63.3,63.0,29.86,West,270,3.2,-999.0,99,-99.99,,,0.00,Acu-Link.com,2013-01-22 07:28:00,
2013-01-22 02:43:00,63.1,62.8,29.86,WNW,292,2.2,-999.0,99,-99.99,,,0.00,Acu-Link.com,2013-01-22 07:43:00,
2013-01-22 02:58:00,63.1,62.8,29.86,West,270,2.7,-999.0,99,-99.99,,,0.00,Acu-Link.com,2013-01-22 07:58:00,
2013-01-22 03:13:00,63.1,62.8,29.86,WNW,292,5.3,-999.0,99,-99.99,,,0.00,Acu-Link.com,2013-01-22 08:13:00,
2013-01-22 03:28:00,63.1,62.8,29.86,West,270,4.7,-999.0,99,-99.99,,,0.00,Acu-Link.com,2013-01-22 08:28:00,
2013-01-22 03:44:00,63.0,62.7,29.85,West,270,3.7,-999.0,99,-99.99,,,0.00,Acu-Link.com,2013-01-22 08:44:00,
2013-01-22 03:59:00,63.0,62.7,29.86,WNW,292,2.2,-999.0,99,-99.99,,,0.00,Acu-Link.com,2013-01-22 08:59:00,
2013-01-22 04:15:00,62.8,62.5,29.86,West,270,3.2,-999.0,99,-99.99,,,0.00,Acu-Link.com,2013-01-22 09:15:00,
2013-01-22 04:30:00,62.8,62.2,29.86,WNW,292,2.7,-999.0,98,-99.99,,,0.00,Acu-Link.com,2013-01-22 09:30:00,
2013-01-22 04:45:00,62.8,61.9,29.85,West,270,3.7,-999.0,97,-99.99,,,0.00,Acu-Link.com,2013-01-22 09:45:00,
2013-01-22 05:00:00,63.0,61.5,29.85,West,270,2.2,-999.0,95,-99.99,,,0.00,Acu-Link.com,2013-01-22 10:00:00,
2013-01-22 05:15:00,63.1,61.0,29.86,NW,315,6.8,-999.0,93,-99.99,,,0.00,Acu-Link.com,2013-01-22 10:15:00,
2013-01-22 05:30:00,63.1,61.0,29.86,WNW,292,4.7,-999.0,93,-99.99,,,0.00,Acu-Link.com,2013-01-22 10:30:00,
2013-01-22 05:45:00,63.1,61.0,29.88,West,270,3.2,-999.0,93,-99.99,,,0.00,Acu-Link.com,2013-01-22 10:45:00,
2013-01-22 06:01:00,63.1,61.0,29.88,NNW,337,5.3,-999.0,93,-99.99,,,0.00,Acu-Link.com,2013-01-22 11:01:00,
2013-01-22 06:16:00,63.0,60.9,29.90,WNW,292,4.7,-999.0,93,-99.99,,,0.00,Acu-Link.com,2013-01-22 11:16:00,
2013-01-22 06:31:00,62.8,60.7,29.90,West,270,2.7,-999.0,93,-99.99,,,0.00,Acu-Link.com,2013-01-22 11:31:00,
2013-01-22 07:01:00,62.1,60.4,29.91,West,270,5.3,-999.0,94,-99.99,,,0.00,Acu-Link.com,2013-01-22 12:01:00,
2013-01-22 07:31:00,61.9,59.9,29.93,West,270,3.7,-999.0,93,-99.99,,,0.00,Acu-Link.com,2013-01-22 12:31:00,
2013-01-22 08:17:00,63.5,59.9,29.94,NW,315,4.2,-999.0,88,-99.99,,,0.00,Acu-Link.com,2013-01-22 13:17:00,
2013-01-22 08:32:00,64.4,59.8,29.95,NNW,337,4.2,-999.0,85,-99.99,,,0.00,Acu-Link.com,2013-01-22 13:32:00,
2013-01-22 09:02:00,66.0,59.6,29.96,WNW,292,5.8,-999.0,80,-99.99,,,0.00,Acu-Link.com,2013-01-22 14:02:00,
2013-01-22 09:17:00,66.6,59.5,29.95,NNE,22,4.7,-999.0,78,-99.99,,,0.00,Acu-Link.com,2013-01-22 14:17:00,
2013-01-22 09:47:00,68.4,59.8,29.97,NNE,22,7.8,-999.0,74,-99.99,,,0.00,Acu-Link.com,2013-01-22 14:47:00,
2013-01-22 10:02:00,69.3,59.9,29.97,North,0,6.8,-999.0,72,-99.99,,,0.00,Acu-Link.com,2013-01-22 15:02:00,
2013-01-22 10:17:00,69.6,59.4,29.98,North,0,5.3,-999.0,70,-99.99,,,0.00,Acu-Link.com,2013-01-22 15:17:00,
2013-01-22 10:33:00,71.4,59.9,29.98,NNE,22,6.8,-999.0,67,-99.99,,,0.00,Acu-Link.com,2013-01-22 15:33:00,
2013-01-22 10:48:00,72.5,60.1,29.98,NNW,337,10.9,-999.0,65,-99.99,,,0.00,Acu-Link.com,2013-01-22 15:48:00,
2013-01-22 11:03:00,72.1,59.7,29.97,NE,45,5.3,-999.0,65,-99.99,,,0.00,Acu-Link.com,2013-01-22 16:03:00,
2013-01-22 11:18:00,73.0,59.6,29.97,NNW,337,10.4,-999.0,63,-99.99,,,0.00,Acu-Link.com,2013-01-22 16:18:00,
2013-01-22 11:33:00,73.8,60.0,29.97,ENE,67,10.9,-999.0,62,-99.99,,,0.00,Acu-Link.com,2013-01-22 16:33:00,
2013-01-22 11:48:00,74.7,60.3,29.97,NNW,337,6.8,-999.0,61,-99.99,,,0.00,Acu-Link.com,2013-01-22 16:48:00,
2013-01-22 12:03:00,74.1,60.2,29.97,NW,315,4.7,-999.0,62,-99.99,,,0.00,Acu-Link.com,2013-01-22 17:03:00,
2013-01-22 12:18:00,73.9,60.0,29.96,WNW,292,6.8,-999.0,62,-99.99,,,0.00,Acu-Link.com,2013-01-22 17:18:00,
2013-01-22 12:33:00,73.9,58.7,29.95,NNE,22,7.8,-999.0,59,-99.99,,,0.00,Acu-Link.com,2013-01-22 17:33:00,
2013-01-22 12:49:00,73.6,58.8,29.95,NE,45,7.3,-999.0,60,-99.99,,,0.00,Acu-Link.com,2013-01-22 17:49:00,
2013-01-22 13:04:00,75.7,59.4,29.94,NNE,22,8.3,-999.0,57,-99.99,,,0.00,Acu-Link.com,2013-01-22 18:04:00,
2013-01-22 13:19:00,73.9,58.2,29.94,NW,315,8.3,-999.0,58,-99.99,,,0.00,Acu-Link.com,2013-01-22 18:19:00,
2013-01-22 13:34:00,73.6,57.9,29.94,North,0,6.8,-999.0,58,-99.99,,,0.00,Acu-Link.com,2013-01-22 18:34:00,
2013-01-22 13:49:00,73.2,58.0,29.94,NNW,337,8.3,-999.0,59,-99.99,,,0.00,Acu-Link.com,2013-01-22 18:49:00,
2013-01-22 14:04:00,73.9,59.1,29.94,NNE,22,14.5,-999.0,60,-99.99,,,0.00,Acu-Link.com,2013-01-22 19:04:00,
2013-01-22 14:19:00,74.3,60.0,29.93,NE,45,5.8,-999.0,61,-99.99,,,0.00,Acu-Link.com,2013-01-22 19:19:00,
2013-01-22 14:34:00,73.0,59.2,29.93,North,0,14.5,-999.0,62,-99.99,,,0.00,Acu-Link.com,2013-01-22 19:34:00,
2013-01-22 14:49:00,72.5,59.6,29.94,East,90,7.8,-999.0,64,-99.99,,,0.00,Acu-Link.com,2013-01-22 19:49:00,
2013-01-22 15:05:00,72.9,59.1,29.95,NE,45,5.8,-999.0,62,-99.99,,,0.00,Acu-Link.com,2013-01-22 20:05:00,
2013-01-22 15:20:00,72.3,59.0,29.95,NE,45,11.9,-999.0,63,-99.99,,,0.00,Acu-Link.com,2013-01-22 20:20:00,
2013-01-22 15:35:00,71.8,58.5,29.96,WNW,292,9.4,-999.0,63,-99.99,,,0.00,Acu-Link.com,2013-01-22 20:35:00,
2013-01-22 15:50:00,71.4,58.1,29.97,NNW,337,10.9,-999.0,63,-99.99,,,0.00,Acu-Link.com,2013-01-22 20:50:00,
2013-01-22 16:05:00,71.4,58.6,29.96,NE,45,15.0,-999.0,64,-99.99,,,0.00,Acu-Link.com,2013-01-22 21:05:00,
2013-01-22 16:20:00,71.2,58.4,29.97,NE,45,4.2,-999.0,64,-99.99,,,0.00,Acu-Link.com,2013-01-22 21:20:00,
2013-01-22 16:35:00,71.6,58.3,29.97,North,0,9.4,-999.0,63,-99.99,,,0.00,Acu-Link.com,2013-01-22 21:35:00,
2013-01-22 16:50:00,71.2,57.9,29.97,North,0,6.3,-999.0,63,-99.99,,,0.00,Acu-Link.com,2013-01-22 21:50:00,
2013-01-22 17:06:00,70.5,57.3,29.98,NNE,22,12.5,-999.0,63,-99.99,,,0.00,Acu-Link.com,2013-01-22 22:06:00,
2013-01-22 17:21:00,70.0,56.8,29.98,NNE,22,16.1,-999.0,63,-99.99,,,0.00,Acu-Link.com,2013-01-22 22:21:00,
2013-01-22 17:36:00,69.6,56.0,29.99,NNE,22,5.8,-999.0,62,-99.99,,,0.00,Acu-Link.com,2013-01-22 22:36:00,
2013-01-22 17:51:00,69.1,55.5,29.98,East,90,11.9,-999.0,62,-99.99,,,0.00,Acu-Link.com,2013-01-22 22:51:00,
2013-01-22 18:21:00,68.9,54.4,29.98,NNE,22,6.3,-999.0,60,-99.99,,,0.00,Acu-Link.com,2013-01-22 23:21:00,
2013-01-22 18:51:00,67.8,55.2,30.00,North,0,4.7,-999.0,64,-99.99,,,0.00,Acu-Link.com,2013-01-22 23:51:00,
2013-01-22 19:06:00,67.3,55.1,29.99,ENE,67,3.2,-999.0,65,-99.99,,,0.00,Acu-Link.com,2013-01-23 00:06:00,
2013-01-22 19:22:00,67.5,54.5,30.00,NNE,22,5.8,-999.0,63,-99.99,,,0.00,Acu-Link.com,2013-01-23 00:22:00,
2013-01-22 19:37:00,68.4,53.5,30.00,NNE,22,10.9,-999.0,59,-99.99,,,0.00,Acu-Link.com,2013-01-23 00:37:00,
2013-01-22 20:07:00,68.4,53.5,30.01,NE,45,8.3,-999.0,59,-99.99,,,0.00,Acu-Link.com,2013-01-23 01:07:00,
2013-01-22 20:22:00,68.4,54.0,30.01,NNE,22,8.3,-999.0,60,-99.99,,,0.00,Acu-Link.com,2013-01-23 01:22:00,
2013-01-22 20:37:00,68.5,53.6,30.01,NE,45,7.8,-999.0,59,-99.99,,,0.00,Acu-Link.com,2013-01-23 01:37:00,
2013-01-22 20:52:00,68.4,53.5,30.03,ESE,112,9.4,-999.0,59,-99.99,,,0.00,Acu-Link.com,2013-01-23 01:52:00,
2013-01-22 21:08:00,68.2,53.3,30.03,NE,45,8.3,-999.0,59,-99.99,,,0.00,Acu-Link.com,2013-01-23 02:08:00,
2013-01-22 21:23:00,68.2,52.9,30.05,NNE,22,7.3,-999.0,58,-99.99,,,0.00,Acu-Link.com,2013-01-23 02:23:00,
2013-01-22 21:38:00,68.0,52.7,30.06,ENE,67,7.3,-999.0,58,-99.99,,,0.00,Acu-Link.com,2013-01-23 02:38:00,
2013-01-22 21:53:00,68.2,52.9,30.06,NE,45,9.4,-999.0,58,-99.99,,,0.00,Acu-Link.com,2013-01-23 02:53:00,
2013-01-22 22:12:00,67.8,52.9,30.07,NE,45,7.3,-999.0,59,-99.99,,,0.00,Acu-Link.com,2013-01-23 03:12:00,
2013-01-22 22:28:00,67.6,52.8,30.07,NE,45,7.8,-999.0,59,-99.99,,,0.00,Acu-Link.com,2013-01-23 03:28:00,
2013-01-22 22:43:00,67.3,53.4,30.06,NE,45,4.7,-999.0,61,-99.99,,,0.00,Acu-Link.com,2013-01-23 03:43:00,
2013-01-22 22:58:00,67.1,53.2,30.06,NE,45,4.7,-999.0,61,-99.99,,,0.00,Acu-Link.com,2013-01-23 03:58:00,
2013-01-22 23:13:00,67.1,52.3,30.07,ENE,67,6.8,-999.0,59,-99.99,,,0.00,Acu-Link.com,2013-01-23 04:13:00,
2013-01-22 23:29:00,67.1,52.7,30.06,NE,45,6.3,-999.0,60,-99.99,,,0.00,Acu-Link.com,2013-01-23 04:29:00,
2013-01-22 23:44:00,67.3,52.5,30.06,NNE,22,4.2,-999.0,59,-99.99,,,0.00,Acu-Link.com,2013-01-23 04:44:00,
2013-01-22 23:59:00,67.3,52.5,30.06,NE,45,8.3,-999.0,59,-99.99,,,0.00,Acu-Link.com,2013-01-23 04:59:00,